Cocoa Beach, FL

11:04 PM EDT on May 23, 2015 (GMT -0400)
Cape Canaveral Air Station Skid Strip | | Change Station
CLOSE
Current Station
Airport
Location: Cocoa Beach,
Elevation: 10 ft
Nearby Weather Stations

Elev 10 ft 28.47 °N, 80.57 °W | Updated 1 hour ago

Clear
Clear
79 °F
Feels Like 79 °F
N
10
Wind Variable Wind from East
Gusts 20 mph

Today
High -- | Low -- °F
--% Chance of Precip.
Yesterday
High -- | Low -- °F
Precip. -- in
6:28 AM 8:10 PM
Waxing Crescent, 35% visible
Pressure 30.21 in
Visibility 10.0 miles
Clouds Clear
Dew Point 72 °F
Humidity 79%
Rainfall 0.00 in
Snow Depth Not available.
UV 0 out of 12
Pollen 5.30 out of 12
Air Quality Not available.
Flu Activity Sporadic
METAR KXMR 240158Z AUTO 09009G17KT 10SM CLR 26/22 A3020 RMK AO2 SLP230 T02590220

More Conditions Fewer Conditions

Pressure 30.21 in
Visibility 10.0 miles
Clouds Clear
Dew Point 72 °F
Humidity 79%
Rainfall 0.00 in
Snow Depth Not available.
UV 0 out of 12
Pollen 5.30 out of 12
Air Quality Not available.
Flu Activity Sporadic
METAR KXMR 240158Z AUTO 09009G17KT 10SM CLR 26/22 A3020 RMK AO2 SLP230 T02590220

More Conditions Fewer Conditions

Nowcast | as of 8:36 PM EDT on May 23, 2015

Isolated showers will move onshore along the Volusia County coast around Daytona Beach and the Treasure Coast this evening. Showers will push onshore with brief heavy rain and diminish some as they move into the interior. Additional details...including graphics are available online at: http://www.Srh.NOAA.Gov/mlb/blog.Php

×

10-Day Weather Forecast

Almanac

Astronomy

May. 23, 2015 Rise Set
Actual Time
Civil Twilight
Nautical Twilight
Astronomical Twilight
Moon
Length of Visible Light
Length of Day
Tomorrow will be .
, % of the Moon is Illuminated

Today's Extremes

State Highs State Lows

Community

WunderPhotos

Upload Photos

1,823,673 photos uploaded!

WunderBlogs® & News

Nearby

Air Quality

  Air Quality AQ Index Pollutant
Not available.

Snow Depth

Station Depth Elevation

Earthquake Activity

City Distance Mag. Time & Date
Minimum magnitude displayed is 2.5.

Coastal Water Temperatures

Place Temperature

Stations

Nearby Weather Stations

Station Location Temp. Windchill Dew Point Humidity Wind Precip. Elev Updated Type